Current | Forecast
Updated: 4:07 PM EEST on August 16, 2017
Observed at Dnipropetrovs'k, Ukraine
Temperature 34°C
Humidity 20%
Dew Point 8°C
Wind East at 25 km/h
Wind Gust 47 km/h
Pressure 1016 hPa (Steady)
Conditions Clear
Visibility -
UV N/A
Clouds
Yesterday's Maximum 35°C
Yesterday's Minimum 22°C approx.
Yesterday's Cooling Degree Days 18 approx.
Sunrise5:30 AM EEST
Sunset7:48 PM EEST
Moon Rise
Moon Set3:05 PM EEST
Moon PhaseMoon Phase
Waning Crescent
Raw METARSPECI UKDD 161307Z 08007G13MPS 040V130 CAVOK 34/08 Q1016 R08/090070 TEMPO 08009G14MPS


Monday
. High: 62° F.
Tuesday
. High: 62° F.
Wednesday
. High: 64° F.
Thursday
. High: 62° F.
Friday
. High: 62° F.
Saturday
. High: 64° F.
Sunday
. High: 68° F.
Monday
. High: 68° F.

Units: English | Metric

Find the Weather for any City, State or Zipcode, or Country:

U.S. State List | Severe Weather | Tropical Storms | Ski Conditions
United States | Canada | Central America | South America | Asia | Europe | Australia | Africa | Islands

Weather Underground

© Copyright 2017
The Weather Company, LLC